createdAt,value
2023-04-02T00:02:23.345Z,97.58
2023-04-02T00:05:31.646Z,97.84
2023-04-02T00:08:03.923Z,97.88
2023-04-02T00:10:46.815Z,98.02
2023-04-02T00:13:15.602Z,97.80
2023-04-02T00:15:49.503Z,97.77
2023-04-02T00:18:23.989Z,97.78
2023-04-02T00:20:56.153Z,98.17
2023-04-02T00:23:23.692Z,98.17
2023-04-02T00:25:52.569Z,97.98
2023-04-02T00:28:22.622Z,97.79
2023-04-02T00:31:10.816Z,97.78
2023-04-02T00:33:38.090Z,97.49
2023-04-02T00:36:08.879Z,97.45
2023-04-02T00:38:35.919Z,97.35
2023-04-02T00:41:07.229Z,97.40
2023-04-02T00:43:39.732Z,97.59
2023-04-02T00:46:16.060Z,97.55
2023-04-02T00:49:09.919Z,97.42
2023-04-02T00:51:44.549Z,97.34
2023-04-02T00:54:16.156Z,97.31
2023-04-02T00:56:46.424Z,97.14
2023-04-02T00:59:30.253Z,97.48
2023-04-02T01:02:17.356Z,97.50
2023-04-02T01:05:20.039Z,97.66
2023-04-02T01:08:06.204Z,97.45
2023-04-02T01:10:32.805Z,97.13
2023-04-02T01:13:12.790Z,97.17
2023-04-02T01:15:44.250Z,97.12
2023-04-02T01:18:19.669Z,97.44
2023-04-02T01:21:01.976Z,97.29
2023-04-02T01:24:00.886Z,97.08
2023-04-02T01:26:30.503Z,97.07
2023-04-02T01:29:16.542Z,97.11
2023-04-02T01:31:47.651Z,96.89
2023-04-02T01:34:18.002Z,96.52
2023-04-02T01:36:59.192Z,96.73
2023-04-02T01:39:44.737Z,97.01
2023-04-02T01:42:19.677Z,96.97
2023-04-02T01:44:56.714Z,96.79
2023-04-02T01:47:27.444Z,96.95
2023-04-02T01:50:01.157Z,96.79
2023-04-02T01:52:42.630Z,96.80
2023-04-02T01:55:15.073Z,97.08
2023-04-02T01:57:49.465Z,97.16
2023-04-02T02:00:18.829Z,96.50
2023-04-02T02:02:50.420Z,96.86
2023-04-02T02:05:21.384Z,96.45
2023-04-02T02:07:48.381Z,96.85
2023-04-02T02:10:27.346Z,96.79
2023-04-02T02:12:59.309Z,96.97
2023-04-02T02:15:27.503Z,97.05
2023-04-02T02:18:04.308Z,96.98
2023-04-02T02:20:36.217Z,96.74
2023-04-02T02:23:04.168Z,96.90
2023-04-02T02:25:34.269Z,96.36
2023-04-02T02:28:17.212Z,96.16
2023-04-02T02:30:49.024Z,96.00
2023-04-02T02:33:37.606Z,96.37
2023-04-02T02:36:22.988Z,96.26
2023-04-02T02:38:56.982Z,96.56
2023-04-02T02:41:26.541Z,96.48
2023-04-02T02:44:08.480Z,96.03
2023-04-02T02:46:48.054Z,95.38
2023-04-02T02:49:22.614Z,95.61
2023-04-02T02:52:15.339Z,95.69
2023-04-02T02:55:06.167Z,95.71
2023-04-02T02:57:38.504Z,95.67
2023-04-02T03:00:09.748Z,95.31
2023-04-02T03:02:41.613Z,95.24
2023-04-02T03:05:09.982Z,95.05
2023-04-02T03:07:37.421Z,95.16
2023-04-02T03:10:06.841Z,94.87
2023-04-02T03:12:45.857Z,95.12
2023-04-02T03:15:37.286Z,95.13
2023-04-02T03:18:46.366Z,95.26
2023-04-02T03:21:28.122Z,95.19
2023-04-02T03:24:02.978Z,95.38
2023-04-02T03:26:29.596Z,95.41
2023-04-02T03:29:21.138Z,94.76
2023-04-02T03:31:54.961Z,95.17
2023-04-02T03:34:39.706Z,95.03
2023-04-02T03:37:32.243Z,94.84
2023-04-02T03:40:17.457Z,94.64
2023-04-02T03:43:21.980Z,94.77
2023-04-02T03:45:53.223Z,94.63
2023-04-02T03:48:34.672Z,94.57
2023-04-02T03:51:09.106Z,94.31
2023-04-02T03:53:35.840Z,94.22
2023-04-02T03:56:02.628Z,94.33
2023-04-02T03:58:39.712Z,94.14
2023-04-02T04:01:23.213Z,94.09
2023-04-02T04:03:53.673Z,94.31
2023-04-02T04:06:31.788Z,94.46
2023-04-02T04:09:35.483Z,94.24
2023-04-02T04:12:17.257Z,94.05
2023-04-02T04:14:51.862Z,94.04
2023-04-02T04:17:34.958Z,94.21
2023-04-02T04:20:22.596Z,94.16
2023-04-02T04:22:56.137Z,94.26
2023-04-02T04:25:30.696Z,93.99
2023-04-02T04:28:12.730Z,94.37
2023-04-02T04:31:00.007Z,94.25
2023-04-02T04:33:39.590Z,94.38
2023-04-02T04:36:19.278Z,93.92
2023-04-02T04:38:55.719Z,94.29
2023-04-02T04:41:29.125Z,93.88
2023-04-02T04:44:01.679Z,94.22
2023-04-02T04:46:41.451Z,94.28
2023-04-02T04:49:17.698Z,94.45
2023-04-02T04:51:51.160Z,94.44
2023-04-02T04:54:18.668Z,93.89
2023-04-02T04:56:49.982Z,94.12
2023-04-02T04:59:44.555Z,94.25
2023-04-02T05:02:15.106Z,94.38
2023-04-02T05:04:46.834Z,94.46
2023-04-02T05:07:23.848Z,94.25
2023-04-02T05:10:15.075Z,94.26
2023-04-02T05:13:04.199Z,94.18
2023-04-02T05:15:52.749Z,94.02
2023-04-02T05:18:25.294Z,93.99
2023-04-02T05:21:07.331Z,93.96
2023-04-02T05:23:48.971Z,93.85
2023-04-02T05:26:33.276Z,93.42
2023-04-02T05:29:28.727Z,93.53
2023-04-02T05:32:02.221Z,93.64
2023-04-02T05:34:33.799Z,93.37
2023-04-02T05:37:00.852Z,93.73
2023-04-02T05:39:27.854Z,93.65
2023-04-02T05:42:03.589Z,93.34
2023-04-02T05:44:38.647Z,92.94
2023-04-02T05:47:28.543Z,93.37
2023-04-02T05:50:04.776Z,93.28
2023-04-02T05:52:37.115Z,93.54
2023-04-02T05:55:37.435Z,92.93
2023-04-02T06:01:07.841Z,92.53
2023-04-02T06:03:47.758Z,92.29
2023-04-02T06:06:43.923Z,92.07
2023-04-02T06:09:21.402Z,92.18
2023-04-02T06:11:57.468Z,92.10
2023-04-02T06:14:26.672Z,91.54
2023-04-02T06:16:53.454Z,91.90
2023-04-02T06:19:29.223Z,91.72
2023-04-02T06:22:03.548Z,91.69
2023-04-02T06:24:31.642Z,90.97
2023-04-02T06:27:06.489Z,90.60
2023-04-02T06:29:40.097Z,90.86
2023-04-02T06:32:08.605Z,90.67
2023-04-02T06:34:38.721Z,90.56
2023-04-02T06:37:22.323Z,89.59
2023-04-02T06:39:48.926Z,89.63
2023-04-02T06:42:23.879Z,89.67
2023-04-02T06:44:51.168Z,88.68
2023-04-02T06:47:42.437Z,88.61
2023-04-02T06:50:23.840Z,88.31
2023-04-02T06:53:05.365Z,88.07
2023-04-02T06:55:47.666Z,87.67
2023-04-02T06:58:19.523Z,88.07
2023-04-02T07:00:51.116Z,88.16
2023-04-02T07:03:21.770Z,87.28
2023-04-02T07:05:48.511Z,88.51
2023-04-02T07:08:15.304Z,87.74
2023-04-02T07:10:42.215Z,87.20
2023-04-02T07:13:21.654Z,87.47
2023-04-02T07:15:52.199Z,86.46
2023-04-02T07:18:29.761Z,86.87
2023-04-02T07:20:59.189Z,87.16
2023-04-02T07:23:26.544Z,86.72
2023-04-02T07:25:54.931Z,86.95
2023-04-02T07:28:22.859Z,87.43
2023-04-02T07:30:51.284Z,87.05
2023-04-02T07:33:22.585Z,86.54
2023-04-02T07:35:51.289Z,86.73
2023-04-02T07:38:17.928Z,86.33
2023-04-02T07:40:44.602Z,85.83
2023-04-02T07:43:11.970Z,85.43
2023-04-02T07:45:38.807Z,85.95
2023-04-02T07:48:13.416Z,85.19
2023-04-02T07:50:42.255Z,85.61
2023-04-02T07:53:27.156Z,85.55
2023-04-02T07:55:53.865Z,84.92
2023-04-02T07:58:20.493Z,85.15
2023-04-02T08:00:47.102Z,84.71
2023-04-02T08:03:14.293Z,84.72
2023-04-02T08:05:41.256Z,84.97
2023-04-02T08:08:07.813Z,84.56
2023-04-02T08:10:39.144Z,84.25
2023-04-02T08:13:05.970Z,84.37
2023-04-02T08:15:35.059Z,83.78
2023-04-02T08:18:04.384Z,83.96
2023-04-02T08:20:31.598Z,83.64
2023-04-02T08:22:58.329Z,83.08
2023-04-02T08:25:28.048Z,83.57
2023-04-02T08:27:54.724Z,83.21
2023-04-02T08:30:21.810Z,83.15
2023-04-02T08:32:50.780Z,82.85
2023-04-02T08:35:17.575Z,82.75
2023-04-02T08:37:44.541Z,82.58
2023-04-02T08:40:25.717Z,82.50
2023-04-02T08:43:17.571Z,82.85
2023-04-02T08:46:13.286Z,82.28
2023-04-02T08:48:44.072Z,82.84
2023-04-02T08:51:22.687Z,82.21
2023-04-02T08:53:50.480Z,82.17
2023-04-02T08:56:29.466Z,81.91
2023-04-02T08:59:11.274Z,82.64
2023-04-02T09:01:47.740Z,82.30
2023-04-02T09:04:18.875Z,82.25
2023-04-02T09:06:47.202Z,82.10
2023-04-02T09:09:15.712Z,82.65
2023-04-02T09:11:56.907Z,82.08
2023-04-02T09:14:51.334Z,82.32
2023-04-02T09:17:21.233Z,82.05
2023-04-02T09:20:11.729Z,82.62
2023-04-02T09:22:39.576Z,82.40
2023-04-02T09:25:15.365Z,81.97
2023-04-02T09:27:42.264Z,81.94
2023-04-02T09:30:42.792Z,81.84
2023-04-02T09:33:11.974Z,82.05
2023-04-02T09:36:09.520Z,82.01
2023-04-02T09:39:29.178Z,81.80
2023-04-02T09:42:05.473Z,82.06
2023-04-02T09:44:48.445Z,82.04
2023-04-02T09:47:28.188Z,82.23
2023-04-02T09:49:55.613Z,81.63
2023-04-02T09:52:33.975Z,82.03
2023-04-02T09:55:19.514Z,81.99
2023-04-02T09:58:24.033Z,81.98
2023-04-02T10:01:07.270Z,81.59
2023-04-02T10:03:37.360Z,81.33
2023-04-02T10:06:09.351Z,81.06
2023-04-02T10:08:37.492Z,80.93
2023-04-02T10:11:11.111Z,80.53
2023-04-02T10:13:49.617Z,80.35
2023-04-02T10:16:39.519Z,80.27
2023-04-02T10:19:22.963Z,79.92
2023-04-02T10:21:50.655Z,80.13
2023-04-02T10:24:18.593Z,79.79
2023-04-02T10:26:48.060Z,79.95
2023-04-02T10:29:37.215Z,79.43
2023-04-02T10:32:18.776Z,79.54
2023-04-02T10:35:30.580Z,80.01
2023-04-02T10:38:50.773Z,79.74
2023-04-02T10:41:31.598Z,79.90
2023-04-02T10:44:06.171Z,79.85
2023-04-02T10:46:57.457Z,79.44
2023-04-02T10:49:36.028Z,79.17
2023-04-02T10:52:26.374Z,79.52
2023-04-02T10:54:57.818Z,79.37
2023-04-02T10:57:38.549Z,78.90
2023-04-02T11:00:17.472Z,78.63
2023-04-02T11:02:58.023Z,78.92
2023-04-02T11:05:58.141Z,78.23
2023-04-02T11:08:49.269Z,77.57
2023-04-02T11:11:24.957Z,77.44
2023-04-02T11:14:16.768Z,77.09
2023-04-02T11:16:45.486Z,76.66
2023-04-02T11:19:19.618Z,76.92
2023-04-02T11:22:01.860Z,76.37
2023-04-02T11:24:37.368Z,76.46
2023-04-02T11:27:13.969Z,76.25
2023-04-02T11:29:49.493Z,76.06
2023-04-02T11:32:22.356Z,76.26
2023-04-02T11:34:56.316Z,75.70
2023-04-02T11:38:05.698Z,75.56
2023-04-02T11:40:54.442Z,75.39
2023-04-02T11:43:33.832Z,74.70
2023-04-02T11:46:28.845Z,75.01
2023-04-02T11:49:42.067Z,74.92
2023-04-02T11:52:29.190Z,74.61
2023-04-02T11:55:06.158Z,73.78
2023-04-02T11:57:55.295Z,73.98
2023-04-02T12:00:40.480Z,74.68
2023-04-02T12:03:20.681Z,74.12
2023-04-02T12:06:13.568Z,74.71
2023-04-02T12:09:08.196Z,74.36
2023-04-02T12:11:40.570Z,73.91
2023-04-02T12:14:46.206Z,73.18
2023-04-02T12:17:34.889Z,72.63
2023-04-02T12:20:32.439Z,72.50
2023-04-02T12:23:03.456Z,71.83
2023-04-02T12:25:57.249Z,70.96
2023-04-02T12:28:29.724Z,70.62
2023-04-02T12:31:14.570Z,70.73
2023-04-02T12:33:53.039Z,69.63
2023-04-02T12:36:29.266Z,70.06
2023-04-02T12:38:59.424Z,69.69
2023-04-02T12:41:34.766Z,67.83
2023-04-02T12:44:06.097Z,68.14
2023-04-02T12:46:49.312Z,68.30
2023-04-02T12:49:31.509Z,66.04
2023-04-02T12:52:07.316Z,65.11
2023-04-02T12:54:39.738Z,66.17
2023-04-02T12:57:25.382Z,67.76
2023-04-02T13:00:21.921Z,67.96
2023-04-02T13:02:51.486Z,67.94
2023-04-02T13:05:40.383Z,65.86
2023-04-02T13:08:15.463Z,66.14
2023-04-02T13:10:43.387Z,65.39
2023-04-02T13:13:33.100Z,63.31
2023-04-02T13:16:09.233Z,64.65
2023-04-02T13:18:39.911Z,66.16
2023-04-02T13:21:29.897Z,66.50
2023-04-02T13:23:56.638Z,66.07
2023-04-02T13:26:30.014Z,64.67
2023-04-02T13:29:02.588Z,65.21
2023-04-02T13:31:31.112Z,65.69
2023-04-02T13:33:58.784Z,65.41
2023-04-02T13:36:26.335Z,62.74
2023-04-02T13:38:53.171Z,63.77
2023-04-02T13:41:26.996Z,60.93
2023-04-02T13:43:59.719Z,62.55
2023-04-02T13:46:32.561Z,63.68
2023-04-02T13:48:59.144Z,63.43
2023-04-02T13:51:53.922Z,63.40
2023-04-02T13:54:27.396Z,64.00
2023-04-02T13:56:56.112Z,62.75
2023-04-02T13:59:23.653Z,63.71
2023-04-02T14:01:57.235Z,63.20
2023-04-02T14:04:30.081Z,63.06
2023-04-02T14:07:30.193Z,63.63
2023-04-02T14:10:06.458Z,62.90
2023-04-02T14:12:38.077Z,60.71
2023-04-02T14:15:16.678Z,62.11
2023-04-02T14:18:11.933Z,61.92
2023-04-02T14:20:49.704Z,62.75
2023-04-02T14:23:30.739Z,62.64
2023-04-02T14:26:12.718Z,63.58
2023-04-02T14:28:58.881Z,62.34
2023-04-02T14:31:32.645Z,61.73
2023-04-02T14:34:56.909Z,59.54
2023-04-02T14:37:33.846Z,60.91
2023-04-02T14:40:19.282Z,58.46
2023-04-02T14:43:03.510Z,59.51
2023-04-02T14:46:10.390Z,60.63
2023-04-02T14:48:43.310Z,58.70
2023-04-02T14:51:27.963Z,59.07
2023-04-02T14:54:01.358Z,57.82
2023-04-02T14:56:31.094Z,57.00
2023-04-02T14:59:17.309Z,58.59
2023-04-02T15:01:49.697Z,58.16
2023-04-02T15:04:38.295Z,56.78
2023-04-02T15:07:39.133Z,58.54
2023-04-02T15:10:09.411Z,58.86
2023-04-02T15:12:38.735Z,57.03
2023-04-02T15:15:24.362Z,58.30
2023-04-02T15:17:59.825Z,59.11
2023-04-02T15:20:39.389Z,57.02
2023-04-02T15:23:25.189Z,57.86
2023-04-02T15:26:17.163Z,55.64
2023-04-02T15:28:55.049Z,57.22
2023-04-02T15:31:26.014Z,57.34
2023-04-02T15:33:58.394Z,58.43
2023-04-02T15:36:45.064Z,58.16
2023-04-02T15:39:21.880Z,58.14
2023-04-02T15:42:24.337Z,58.49
2023-04-02T15:45:11.003Z,58.76
2023-04-02T15:47:52.217Z,58.65
2023-04-02T15:50:28.049Z,58.94
2023-04-02T15:53:06.897Z,58.14
2023-04-02T15:55:42.106Z,58.66
2023-04-02T15:58:19.775Z,58.83
2023-04-02T16:01:05.178Z,59.22
2023-04-02T16:03:56.308Z,58.84
2023-04-02T16:06:27.110Z,58.72
2023-04-02T16:09:05.073Z,58.48
2023-04-02T16:11:35.806Z,58.63
2023-04-02T16:14:11.348Z,59.22
2023-04-02T16:16:40.476Z,59.06
2023-04-02T16:19:15.962Z,58.69
2023-04-02T16:22:17.620Z,59.04
2023-04-02T16:24:48.739Z,59.19
2023-04-02T16:27:27.993Z,59.45
2023-04-02T16:30:19.570Z,59.57
2023-04-02T16:33:11.103Z,60.02
2023-04-02T16:35:56.990Z,60.05
2023-04-02T16:38:35.374Z,60.14
2023-04-02T16:41:28.992Z,60.20
2023-04-02T16:44:19.322Z,60.13
2023-04-02T16:47:27.564Z,60.37
2023-04-02T16:50:01.728Z,59.90
2023-04-02T16:52:28.298Z,59.68
2023-04-02T16:55:32.372Z,60.26
2023-04-02T16:58:21.891Z,60.33
2023-04-02T17:00:54.853Z,60.20
2023-04-02T17:03:59.411Z,60.10
2023-04-02T17:06:55.242Z,60.44
2023-04-02T17:10:03.596Z,60.27
2023-04-02T17:12:45.613Z,60.52
2023-04-02T17:15:27.645Z,60.11
2023-04-02T17:18:02.019Z,60.06
2023-04-02T17:20:56.505Z,59.88
2023-04-02T17:23:27.066Z,59.63
2023-04-02T17:26:10.558Z,60.19
2023-04-02T17:28:40.697Z,60.25
2023-04-02T17:31:50.102Z,60.39
2023-04-02T17:34:37.258Z,60.99
2023-04-02T17:37:34.630Z,61.45
2023-04-02T17:40:23.497Z,61.15
2023-04-02T17:43:00.322Z,61.60
2023-04-02T17:45:56.502Z,61.52
2023-04-02T17:48:46.322Z,61.49
2023-04-02T17:51:30.546Z,61.91
2023-04-02T17:54:34.256Z,62.51
2023-04-02T17:57:24.080Z,62.45
2023-04-02T18:00:12.478Z,63.06
2023-04-02T18:03:07.843Z,62.90
2023-04-02T18:05:45.086Z,63.39
2023-04-02T18:08:22.604Z,64.02
2023-04-02T18:11:09.151Z,64.20
2023-04-02T18:13:39.669Z,64.49
2023-04-02T18:16:44.204Z,64.89
2023-04-02T18:19:15.044Z,65.82
2023-04-02T18:21:53.964Z,65.99
2023-04-02T18:24:59.067Z,66.18
2023-04-02T18:27:55.784Z,66.41
2023-04-02T18:30:34.902Z,66.46
2023-04-02T18:33:25.903Z,66.63
2023-04-02T18:36:37.602Z,66.71
2023-04-02T18:39:49.216Z,67.33
2023-04-02T18:42:50.566Z,67.36
2023-04-02T18:45:36.003Z,67.60
2023-04-02T18:48:16.781Z,67.65
2023-04-02T18:50:46.999Z,68.11
2023-04-02T18:53:19.208Z,67.97
2023-04-02T18:55:50.949Z,68.44
2023-04-02T18:58:31.571Z,68.36
2023-04-02T19:01:01.271Z,68.32
2023-04-02T19:03:36.644Z,68.91
2023-04-02T19:06:08.146Z,69.30
2023-04-02T19:08:50.483Z,69.20
2023-04-02T19:11:32.075Z,69.48
2023-04-02T19:14:01.411Z,70.00
2023-04-02T19:16:47.573Z,70.32
2023-04-02T19:19:24.213Z,70.58
2023-04-02T19:22:10.396Z,70.85
2023-04-02T19:24:49.348Z,71.49
2023-04-02T19:27:34.065Z,71.13
2023-04-02T19:30:24.748Z,71.15
2023-04-02T19:33:09.947Z,71.53
2023-04-02T19:35:58.981Z,72.61
2023-04-02T19:38:58.972Z,72.88
2023-04-02T19:41:37.762Z,72.91
2023-04-02T19:44:11.757Z,72.89
2023-04-02T19:46:39.745Z,72.65
2023-04-02T19:49:22.966Z,73.13
2023-04-02T19:51:50.774Z,73.05
2023-04-02T19:54:20.801Z,73.20
2023-04-02T19:56:48.203Z,73.17
2023-04-02T19:59:18.160Z,73.40
2023-04-02T20:01:48.165Z,73.04
2023-04-02T20:04:15.572Z,73.47
2023-04-02T20:06:43.428Z,73.38
2023-04-02T20:09:10.362Z,73.47
2023-04-02T20:11:38.384Z,73.45
2023-04-02T20:14:05.488Z,73.46
2023-04-02T20:16:33.977Z,73.61
2023-04-02T20:19:00.822Z,74.08
2023-04-02T20:21:34.719Z,73.62
2023-04-02T20:24:01.569Z,73.74
2023-04-02T20:26:29.760Z,74.02
2023-04-02T20:28:56.616Z,73.86
2023-04-02T20:31:23.536Z,73.62
2023-04-02T20:33:50.392Z,74.04
2023-04-02T20:36:17.809Z,74.00
2023-04-02T20:38:45.859Z,73.93
2023-04-02T20:41:15.858Z,73.85
2023-04-02T20:43:43.154Z,73.89
2023-04-02T20:46:15.817Z,74.41
2023-04-02T20:48:44.910Z,74.44
2023-04-02T20:51:14.638Z,74.52
2023-04-02T20:53:47.174Z,74.19
2023-04-02T20:56:23.379Z,74.30
2023-04-02T20:58:52.787Z,73.78
2023-04-02T21:01:26.783Z,73.67
2023-04-02T21:04:03.570Z,74.12
2023-04-02T21:06:34.820Z,73.93
2023-04-02T21:09:14.729Z,73.97
2023-04-02T21:11:44.660Z,73.81
2023-04-02T21:14:11.508Z,74.47
2023-04-02T21:16:45.278Z,74.14
2023-04-02T21:19:15.157Z,74.60
2023-04-02T21:21:44.375Z,74.66
2023-04-02T21:24:11.419Z,74.84
2023-04-02T21:26:40.355Z,75.65
2023-04-02T21:29:07.655Z,75.19
2023-04-02T21:31:40.040Z,75.21
2023-04-02T21:34:09.796Z,75.46
2023-04-02T21:36:40.870Z,75.57
2023-04-02T21:39:16.135Z,75.54
2023-04-02T21:41:45.093Z,75.47
2023-04-02T21:44:16.641Z,76.18
2023-04-02T21:46:47.101Z,76.62
2023-04-02T21:49:22.034Z,76.51
2023-04-02T21:51:51.831Z,76.56
2023-04-02T21:54:18.650Z,76.94
2023-04-02T21:56:51.706Z,77.31
2023-04-02T21:59:18.992Z,77.14
2023-04-02T22:01:48.755Z,77.11
2023-04-02T22:04:21.327Z,77.73
2023-04-02T22:06:51.061Z,77.89
2023-04-02T22:09:25.762Z,77.50
2023-04-02T22:11:56.124Z,77.69
2023-04-02T22:14:23.286Z,78.35
2023-04-02T22:16:52.690Z,77.85
2023-04-02T22:19:21.971Z,78.29
2023-04-02T22:21:51.933Z,78.52
2023-04-02T22:24:25.497Z,78.44
2023-04-02T22:26:52.393Z,79.16
2023-04-02T22:29:19.137Z,78.56
2023-04-02T22:31:45.959Z,78.92
2023-04-02T22:34:14.923Z,78.84
2023-04-02T22:36:41.676Z,78.81
2023-04-02T22:39:12.829Z,79.17
2023-04-02T22:41:42.779Z,79.02
2023-04-02T22:44:14.203Z,79.05
2023-04-02T22:46:43.675Z,79.53
2023-04-02T22:49:11.681Z,79.16
2023-04-02T22:51:38.644Z,79.25
2023-04-02T22:54:05.799Z,79.42
2023-04-02T22:56:33.314Z,79.47
2023-04-02T22:59:02.447Z,79.28
2023-04-02T23:01:36.825Z,79.46
2023-04-02T23:04:05.356Z,79.77
2023-04-02T23:06:34.410Z,79.78
2023-04-02T23:09:01.159Z,79.81
2023-04-02T23:11:30.474Z,80.05
2023-04-02T23:13:58.057Z,80.16
2023-04-02T23:16:27.767Z,80.46
2023-04-02T23:18:55.939Z,80.16
2023-04-02T23:21:26.220Z,80.37
2023-04-02T23:23:53.342Z,81.20
2023-04-02T23:26:26.687Z,80.47
2023-04-02T23:28:53.602Z,80.32
2023-04-02T23:31:25.089Z,80.23
2023-04-02T23:33:52.648Z,80.46
2023-04-02T23:36:28.233Z,80.58
2023-04-02T23:39:01.274Z,79.89
2023-04-02T23:41:29.379Z,80.13
2023-04-02T23:43:57.344Z,80.07
2023-04-02T23:46:25.215Z,80.03
2023-04-02T23:48:52.381Z,79.94
2023-04-02T23:51:22.306Z,79.79
2023-04-02T23:53:50.480Z,79.90
2023-04-02T23:56:20.876Z,80.25
2023-04-02T23:58:48.428Z,79.56
